<?xml version="1.0" encoding="UTF-8"?>
<gpx
  version="1.0"
  creator="GPSBabel - http://www.gpsbabel.org"
  xmlns:xsi="http://www.w3.org/2001/XMLSchema-instance"
  xmlns="http://www.topografix.com/GPX/1/0"
  xsi:schemaLocation="http://www.topografix.com/GPX/1/1 http://www.topografix.com/GPX/1/1/gpx.xsd">
<time>2012-04-22T08:50:30Z</time>
<bounds minlat="43.002963000" minlon="-2.781990000" maxlat="43.034237000" maxlon="-2.742073000"/>
<trk>
  <name>Canteras Murua - Gorbea</name>
  <desc>Subida al Gorbea desde las canteras de Murua.</desc>
<trkseg>
<trkpt lat="43.002974000" lon="-2.742078000">
  <ele>713.000000</ele>
  <time>2012-04-22T10:50:30Z</time>
</trkpt>
<trkpt lat="43.002974000" lon="-2.742150000">
  <ele>714.000000</ele>
  <time>2012-04-22T10:51:10Z</time>
</trkpt>
<trkpt lat="43.003044000" lon="-2.742698000">
  <ele>718.000000</ele>
  <time>2012-04-22T10:51:50Z</time>
</trkpt>
<trkpt lat="43.003114000" lon="-2.742963000">
  <ele>718.000000</ele>
  <time>2012-04-22T10:52:30Z</time>
</trkpt>
<trkpt lat="43.003277000" lon="-2.743262000">
  <ele>717.000000</ele>
  <time>2012-04-22T10:53:10Z</time>
</trkpt>
<trkpt lat="43.003391000" lon="-2.743599000">
  <ele>717.000000</ele>
  <time>2012-04-22T10:53:50Z</time>
</trkpt>
<trkpt lat="43.003494000" lon="-2.743854000">
  <ele>719.000000</ele>
  <time>2012-04-22T10:55:10Z</time>
</trkpt>
<trkpt lat="43.003526000" lon="-2.743865000">
  <ele>719.000000</ele>
  <time>2012-04-22T10:55:50Z</time>
</trkpt>
<trkpt lat="43.003592000" lon="-2.743931000">
  <ele>720.000000</ele>
  <time>2012-04-22T10:57:10Z</time>
</trkpt>
<trkpt lat="43.003657000" lon="-2.743975000">
  <ele>720.000000</ele>
  <time>2012-04-22T10:58:30Z</time>
</trkpt>
<trkpt lat="43.003824000" lon="-2.744279000">
  <ele>726.000000</ele>
  <time>2012-04-22T10:59:10Z</time>
</trkpt>
<trkpt lat="43.004003000" lon="-2.744356000">
  <ele>726.000000</ele>
  <time>2012-04-22T10:59:50Z</time>
</trkpt>
<trkpt lat="43.004056000" lon="-2.744483000">
  <ele>728.000000</ele>
  <time>2012-04-22T11:00:30Z</time>
</trkpt>
<trkpt lat="43.004073000" lon="-2.744499000">
  <ele>728.000000</ele>
  <time>2012-04-22T11:01:10Z</time>
</trkpt>
<trkpt lat="43.004085000" lon="-2.744544000">
  <ele>728.000000</ele>
  <time>2012-04-22T11:01:50Z</time>
</trkpt>
<trkpt lat="43.004093000" lon="-2.744616000">
  <ele>730.000000</ele>
  <time>2012-04-22T11:03:10Z</time>
</trkpt>
<trkpt lat="43.004126000" lon="-2.744738000">
  <ele>732.000000</ele>
  <time>2012-04-22T11:05:10Z</time>
</trkpt>
<trkpt lat="43.004199000" lon="-2.744820000">
  <ele>733.000000</ele>
  <time>2012-04-22T11:05:50Z</time>
</trkpt>
<trkpt lat="43.004228000" lon="-2.744831000">
  <ele>733.000000</ele>
  <time>2012-04-22T11:07:10Z</time>
</trkpt>
<trkpt lat="43.004260000" lon="-2.744892000">
  <ele>734.000000</ele>
  <time>2012-04-22T11:09:10Z</time>
</trkpt>
<trkpt lat="43.004281000" lon="-2.744897000">
  <ele>734.000000</ele>
  <time>2012-04-22T11:10:30Z</time>
</trkpt>
<trkpt lat="43.004444000" lon="-2.745191000">
  <ele>738.000000</ele>
  <time>2012-04-22T11:11:10Z</time>
</trkpt>
<trkpt lat="43.004591000" lon="-2.745295000">
  <ele>738.000000</ele>
  <time>2012-04-22T11:11:50Z</time>
</trkpt>
<trkpt lat="43.004734000" lon="-2.745450000">
  <ele>739.000000</ele>
  <time>2012-04-22T11:12:30Z</time>
</trkpt>
<trkpt lat="43.004799000" lon="-2.745538000">
  <ele>739.000000</ele>
  <time>2012-04-22T11:13:10Z</time>
</trkpt>
<trkpt lat="43.004823000" lon="-2.745538000">
  <ele>739.000000</ele>
  <time>2012-04-22T11:14:30Z</time>
</trkpt>
<trkpt lat="43.004986000" lon="-2.745593000">
  <ele>737.000000</ele>
  <time>2012-04-22T11:15:10Z</time>
</trkpt>
<trkpt lat="43.005108000" lon="-2.745675000">
  <ele>737.000000</ele>
  <time>2012-04-22T11:16:30Z</time>
</trkpt>
<trkpt lat="43.005137000" lon="-2.745714000">
  <ele>737.000000</ele>
  <time>2012-04-22T11:17:10Z</time>
</trkpt>
<trkpt lat="43.005194000" lon="-2.745747000">
  <ele>736.000000</ele>
  <time>2012-04-22T11:18:30Z</time>
</trkpt>
<trkpt lat="43.005494000" lon="-2.746055000">
  <ele>737.000000</ele>
  <time>2012-04-22T11:19:50Z</time>
</trkpt>
<trkpt lat="43.005497000" lon="-2.746082000">
  <ele>738.000000</ele>
  <time>2012-04-22T11:20:30Z</time>
</trkpt>
<trkpt lat="43.005514000" lon="-2.746120000">
  <ele>738.000000</ele>
  <time>2012-04-22T11:21:10Z</time>
</trkpt>
<trkpt lat="43.005531000" lon="-2.746127000">
  <ele>738.000000</ele>
  <time>2012-04-22T11:21:50Z</time>
</trkpt>
<trkpt lat="43.005553000" lon="-2.746166000">
  <ele>738.000000</ele>
  <time>2012-04-22T11:22:30Z</time>
</trkpt>
<trkpt lat="43.005604000" lon="-2.746161000">
  <ele>738.000000</ele>
  <time>2012-04-22T11:23:10Z</time>
</trkpt>
<trkpt lat="43.005742000" lon="-2.746311000">
  <ele>738.000000</ele>
  <time>2012-04-22T11:24:30Z</time>
</trkpt>
<trkpt lat="43.005935000" lon="-2.746558000">
  <ele>740.000000</ele>
  <time>2012-04-22T11:25:10Z</time>
</trkpt>
<trkpt lat="43.006056000" lon="-2.746668000">
  <ele>740.000000</ele>
  <time>2012-04-22T11:25:50Z</time>
</trkpt>
<trkpt lat="43.006469000" lon="-2.747159000">
  <ele>742.000000</ele>
  <time>2012-04-22T11:27:10Z</time>
</trkpt>
<trkpt lat="43.006625000" lon="-2.747506000">
  <ele>746.000000</ele>
  <time>2012-04-22T11:27:50Z</time>
</trkpt>
<trkpt lat="43.006732000" lon="-2.747888000">
  <ele>752.000000</ele>
  <time>2012-04-22T11:29:10Z</time>
</trkpt>
<trkpt lat="43.006769000" lon="-2.747930000">
  <ele>752.000000</ele>
  <time>2012-04-22T11:31:10Z</time>
</trkpt>
<trkpt lat="43.007025000" lon="-2.748099000">
  <ele>749.000000</ele>
  <time>2012-04-22T11:31:50Z</time>
</trkpt>
<trkpt lat="43.007150000" lon="-2.748242000">
  <ele>750.000000</ele>
  <time>2012-04-22T11:32:30Z</time>
</trkpt>
<trkpt lat="43.007387000" lon="-2.748428000">
  <ele>754.000000</ele>
  <time>2012-04-22T11:33:50Z</time>
</trkpt>
<trkpt lat="43.007431000" lon="-2.748445000">
  <ele>754.000000</ele>
  <time>2012-04-22T11:35:10Z</time>
</trkpt>
<trkpt lat="43.007619000" lon="-2.748767000">
  <ele>758.000000</ele>
  <time>2012-04-22T11:35:50Z</time>
</trkpt>
<trkpt lat="43.007856000" lon="-2.749115000">
  <ele>760.000000</ele>
  <time>2012-04-22T11:36:30Z</time>
</trkpt>
<trkpt lat="43.008007000" lon="-2.749427000">
  <ele>763.000000</ele>
  <time>2012-04-22T11:37:10Z</time>
</trkpt>
<trkpt lat="43.008083000" lon="-2.749473000">
  <ele>765.000000</ele>
  <time>2012-04-22T11:37:50Z</time>
</trkpt>
<trkpt lat="43.008228000" lon="-2.749791000">
  <ele>770.000000</ele>
  <time>2012-04-22T11:38:30Z</time>
</trkpt>
<trkpt lat="43.008358000" lon="-2.750131000">
  <ele>774.000000</ele>
  <time>2012-04-22T11:39:10Z</time>
</trkpt>
<trkpt lat="43.008503000" lon="-2.750454000">
  <ele>777.000000</ele>
  <time>2012-04-22T11:39:50Z</time>
</trkpt>
<trkpt lat="43.008694000" lon="-2.750693000">
  <ele>779.000000</ele>
  <time>2012-04-22T11:40:30Z</time>
</trkpt>
<trkpt lat="43.008900000" lon="-2.751046000">
  <ele>782.000000</ele>
  <time>2012-04-22T11:41:50Z</time>
</trkpt>
<trkpt lat="43.008942000" lon="-2.751245000">
  <ele>784.000000</ele>
  <time>2012-04-22T11:42:30Z</time>
</trkpt>
<trkpt lat="43.008976000" lon="-2.751318000">
  <ele>786.000000</ele>
  <time>2012-04-22T11:43:10Z</time>
</trkpt>
<trkpt lat="43.008972000" lon="-2.751347000">
  <ele>786.000000</ele>
  <time>2012-04-22T11:43:50Z</time>
</trkpt>
<trkpt lat="43.008995000" lon="-2.751436000">
  <ele>787.000000</ele>
  <time>2012-04-22T11:44:30Z</time>
</trkpt>
<trkpt lat="43.009022000" lon="-2.751511000">
  <ele>789.000000</ele>
  <time>2012-04-22T11:45:10Z</time>
</trkpt>
<trkpt lat="43.009033000" lon="-2.751521000">
  <ele>789.000000</ele>
  <time>2012-04-22T11:45:50Z</time>
</trkpt>
<trkpt lat="43.009174000" lon="-2.751838000">
  <ele>793.000000</ele>
  <time>2012-04-22T11:46:30Z</time>
</trkpt>
<trkpt lat="43.009239000" lon="-2.752151000">
  <ele>796.000000</ele>
  <time>2012-04-22T11:47:10Z</time>
</trkpt>
<trkpt lat="43.009296000" lon="-2.752250000">
  <ele>797.000000</ele>
  <time>2012-04-22T11:47:50Z</time>
</trkpt>
<trkpt lat="43.009407000" lon="-2.752622000">
  <ele>800.000000</ele>
  <time>2012-04-22T11:49:10Z</time>
</trkpt>
<trkpt lat="43.009415000" lon="-2.752634000">
  <ele>800.000000</ele>
  <time>2012-04-22T11:49:50Z</time>
</trkpt>
<trkpt lat="43.009457000" lon="-2.752785000">
  <ele>801.000000</ele>
  <time>2012-04-22T11:50:30Z</time>
</trkpt>
<trkpt lat="43.009453000" lon="-2.752822000">
  <ele>801.000000</ele>
  <time>2012-04-22T11:51:10Z</time>
</trkpt>
<trkpt lat="43.009560000" lon="-2.753164000">
  <ele>803.000000</ele>
  <time>2012-04-22T11:51:50Z</time>
</trkpt>
<trkpt lat="43.009632000" lon="-2.753528000">
  <ele>806.000000</ele>
  <time>2012-04-22T11:52:30Z</time>
</trkpt>
<trkpt lat="43.009758000" lon="-2.753857000">
  <ele>811.000000</ele>
  <time>2012-04-22T11:53:10Z</time>
</trkpt>
<trkpt lat="43.009903000" lon="-2.754175000">
  <ele>815.000000</ele>
  <time>2012-04-22T11:53:50Z</time>
</trkpt>
<trkpt lat="43.010292000" lon="-2.754700000">
  <ele>819.000000</ele>
  <time>2012-04-22T11:55:10Z</time>
</trkpt>
<trkpt lat="43.010502000" lon="-2.754890000">
  <ele>821.000000</ele>
  <time>2012-04-22T11:55:50Z</time>
</trkpt>
<trkpt lat="43.010639000" lon="-2.755034000">
  <ele>823.000000</ele>
  <time>2012-04-22T11:56:30Z</time>
</trkpt>
<trkpt lat="43.010830000" lon="-2.755302000">
  <ele>827.000000</ele>
  <time>2012-04-22T11:57:10Z</time>
</trkpt>
<trkpt lat="43.011044000" lon="-2.755531000">
  <ele>830.000000</ele>
  <time>2012-04-22T11:57:50Z</time>
</trkpt>
<trkpt lat="43.011280000" lon="-2.755824000">
  <ele>834.000000</ele>
  <time>2012-04-22T11:59:10Z</time>
</trkpt>
<trkpt lat="43.011311000" lon="-2.755874000">
  <ele>835.000000</ele>
  <time>2012-04-22T11:59:50Z</time>
</trkpt>
<trkpt lat="43.011421000" lon="-2.756215000">
  <ele>839.000000</ele>
  <time>2012-04-22T12:00:30Z</time>
</trkpt>
<trkpt lat="43.011501000" lon="-2.756378000">
  <ele>842.000000</ele>
  <time>2012-04-22T12:01:10Z</time>
</trkpt>
<trkpt lat="43.011505000" lon="-2.756499000">
  <ele>844.000000</ele>
  <time>2012-04-22T12:01:50Z</time>
</trkpt>
<trkpt lat="43.011570000" lon="-2.756747000">
  <ele>847.000000</ele>
  <time>2012-04-22T12:03:10Z</time>
</trkpt>
<trkpt lat="43.011616000" lon="-2.756881000">
  <ele>849.000000</ele>
  <time>2012-04-22T12:03:50Z</time>
</trkpt>
<trkpt lat="43.011627000" lon="-2.756889000">
  <ele>849.000000</ele>
  <time>2012-04-22T12:04:30Z</time>
</trkpt>
<trkpt lat="43.011650000" lon="-2.756977000">
  <ele>850.000000</ele>
  <time>2012-04-22T12:05:10Z</time>
</trkpt>
<trkpt lat="43.011654000" lon="-2.757091000">
  <ele>852.000000</ele>
  <time>2012-04-22T12:06:30Z</time>
</trkpt>
<trkpt lat="43.011761000" lon="-2.757439000">
  <ele>856.000000</ele>
  <time>2012-04-22T12:07:10Z</time>
</trkpt>
<trkpt lat="43.011887000" lon="-2.757767000">
  <ele>858.000000</ele>
  <time>2012-04-22T12:07:50Z</time>
</trkpt>
<trkpt lat="43.011906000" lon="-2.757942000">
  <ele>860.000000</ele>
  <time>2012-04-22T12:08:30Z</time>
</trkpt>
<trkpt lat="43.011959000" lon="-2.758107000">
  <ele>861.000000</ele>
  <time>2012-04-22T12:09:10Z</time>
</trkpt>
<trkpt lat="43.011993000" lon="-2.758052000">
  <ele>860.000000</ele>
  <time>2012-04-22T12:09:50Z</time>
</trkpt>
<trkpt lat="43.012035000" lon="-2.758038000">
  <ele>860.000000</ele>
  <time>2012-04-22T12:10:30Z</time>
</trkpt>
<trkpt lat="43.012138000" lon="-2.757895000">
  <ele>860.000000</ele>
  <time>2012-04-22T12:11:10Z</time>
</trkpt>
<trkpt lat="43.012215000" lon="-2.757631000">
  <ele>860.000000</ele>
  <time>2012-04-22T12:11:50Z</time>
</trkpt>
<trkpt lat="43.012370000" lon="-2.757678000">
  <ele>864.000000</ele>
  <time>2012-04-22T12:12:30Z</time>
</trkpt>
<trkpt lat="43.012566000" lon="-2.757765000">
  <ele>869.000000</ele>
  <time>2012-04-22T12:13:10Z</time>
</trkpt>
<trkpt lat="43.012745000" lon="-2.758045000">
  <ele>876.000000</ele>
  <time>2012-04-22T12:13:50Z</time>
</trkpt>
<trkpt lat="43.012779000" lon="-2.758168000">
  <ele>878.000000</ele>
  <time>2012-04-22T12:14:30Z</time>
</trkpt>
<trkpt lat="43.012936000" lon="-2.758454000">
  <ele>884.000000</ele>
  <time>2012-04-22T12:15:10Z</time>
</trkpt>
<trkpt lat="43.012951000" lon="-2.758514000">
  <ele>885.000000</ele>
  <time>2012-04-22T12:15:50Z</time>
</trkpt>
<trkpt lat="43.013096000" lon="-2.758825000">
  <ele>892.000000</ele>
  <time>2012-04-22T12:16:30Z</time>
</trkpt>
<trkpt lat="43.013153000" lon="-2.759192000">
  <ele>899.000000</ele>
  <time>2012-04-22T12:17:10Z</time>
</trkpt>
<trkpt lat="43.013149000" lon="-2.759472000">
  <ele>904.000000</ele>
  <time>2012-04-22T12:17:50Z</time>
</trkpt>
<trkpt lat="43.013168000" lon="-2.759593000">
  <ele>907.000000</ele>
  <time>2012-04-22T12:18:30Z</time>
</trkpt>
<trkpt lat="43.013386000" lon="-2.759708000">
  <ele>917.000000</ele>
  <time>2012-04-22T12:19:50Z</time>
</trkpt>
<trkpt lat="43.013649000" lon="-2.759791000">
  <ele>928.000000</ele>
  <time>2012-04-22T12:20:30Z</time>
</trkpt>
<trkpt lat="43.013756000" lon="-2.759856000">
  <ele>934.000000</ele>
  <time>2012-04-22T12:21:10Z</time>
</trkpt>
<trkpt lat="43.014030000" lon="-2.759916000">
  <ele>937.000000</ele>
  <time>2012-04-22T12:21:50Z</time>
</trkpt>
<trkpt lat="43.014359000" lon="-2.760076000">
  <ele>944.000000</ele>
  <time>2012-04-22T12:23:10Z</time>
</trkpt>
<trkpt lat="43.014626000" lon="-2.760185000">
  <ele>949.000000</ele>
  <time>2012-04-22T12:23:50Z</time>
</trkpt>
<trkpt lat="43.015076000" lon="-2.760744000">
  <ele>963.000000</ele>
  <time>2012-04-22T12:25:50Z</time>
</trkpt>
<trkpt lat="43.015289000" lon="-2.760973000">
  <ele>968.000000</ele>
  <time>2012-04-22T12:26:30Z</time>
</trkpt>
<trkpt lat="43.015400000" lon="-2.760997000">
  <ele>969.000000</ele>
  <time>2012-04-22T12:27:10Z</time>
</trkpt>
<trkpt lat="43.015720000" lon="-2.760891000">
  <ele>967.000000</ele>
  <time>2012-04-22T12:28:30Z</time>
</trkpt>
<trkpt lat="43.015884000" lon="-2.760693000">
  <ele>962.000000</ele>
  <time>2012-04-22T12:29:10Z</time>
</trkpt>
<trkpt lat="43.016159000" lon="-2.760657000">
  <ele>962.000000</ele>
  <time>2012-04-22T12:29:50Z</time>
</trkpt>
<trkpt lat="43.016434000" lon="-2.760711000">
  <ele>968.000000</ele>
  <time>2012-04-22T12:30:30Z</time>
</trkpt>
<trkpt lat="43.016766000" lon="-2.760700000">
  <ele>975.000000</ele>
  <time>2012-04-22T12:31:50Z</time>
</trkpt>
<trkpt lat="43.016953000" lon="-2.760721000">
  <ele>979.000000</ele>
  <time>2012-04-22T12:32:30Z</time>
</trkpt>
<trkpt lat="43.017220000" lon="-2.760622000">
  <ele>982.000000</ele>
  <time>2012-04-22T12:33:10Z</time>
</trkpt>
<trkpt lat="43.017490000" lon="-2.760606000">
  <ele>987.000000</ele>
  <time>2012-04-22T12:33:50Z</time>
</trkpt>
<trkpt lat="43.017582000" lon="-2.760703000">
  <ele>992.000000</ele>
  <time>2012-04-22T12:35:10Z</time>
</trkpt>
<trkpt lat="43.017593000" lon="-2.760701000">
  <ele>993.000000</ele>
  <time>2012-04-22T12:35:50Z</time>
</trkpt>
<trkpt lat="43.017624000" lon="-2.760729000">
  <ele>994.000000</ele>
  <time>2012-04-22T12:36:30Z</time>
</trkpt>
<trkpt lat="43.017803000" lon="-2.760956000">
  <ele>1005.000000</ele>
  <time>2012-04-22T12:37:10Z</time>
</trkpt>
<trkpt lat="43.017899000" lon="-2.760989000">
  <ele>1009.000000</ele>
  <time>2012-04-22T12:37:50Z</time>
</trkpt>
<trkpt lat="43.018139000" lon="-2.761168000">
  <ele>1016.000000</ele>
  <time>2012-04-22T12:38:30Z</time>
</trkpt>
<trkpt lat="43.018391000" lon="-2.761342000">
  <ele>1024.000000</ele>
  <time>2012-04-22T12:39:10Z</time>
</trkpt>
<trkpt lat="43.018539000" lon="-2.761428000">
  <ele>1028.000000</ele>
  <time>2012-04-22T12:39:50Z</time>
</trkpt>
<trkpt lat="43.018566000" lon="-2.761456000">
  <ele>1029.000000</ele>
  <time>2012-04-22T12:40:30Z</time>
</trkpt>
<trkpt lat="43.019016000" lon="-2.761722000">
  <ele>1038.000000</ele>
  <time>2012-04-22T12:41:50Z</time>
</trkpt>
<trkpt lat="43.019180000" lon="-2.761832000">
  <ele>1041.000000</ele>
  <time>2012-04-22T12:42:30Z</time>
</trkpt>
<trkpt lat="43.019550000" lon="-2.762115000">
  <ele>1047.000000</ele>
  <time>2012-04-22T12:43:50Z</time>
</trkpt>
<trkpt lat="43.019741000" lon="-2.762385000">
  <ele>1054.000000</ele>
  <time>2012-04-22T12:44:30Z</time>
</trkpt>
<trkpt lat="43.019924000" lon="-2.762660000">
  <ele>1061.000000</ele>
  <time>2012-04-22T12:45:10Z</time>
</trkpt>
<trkpt lat="43.020126000" lon="-2.762917000">
  <ele>1066.000000</ele>
  <time>2012-04-22T12:45:50Z</time>
</trkpt>
<trkpt lat="43.020313000" lon="-2.763188000">
  <ele>1071.000000</ele>
  <time>2012-04-22T12:46:30Z</time>
</trkpt>
<trkpt lat="43.020290000" lon="-2.763231000">
  <ele>1073.000000</ele>
  <time>2012-04-22T12:47:10Z</time>
</trkpt>
<trkpt lat="43.020245000" lon="-2.763217000">
  <ele>1074.000000</ele>
  <time>2012-04-22T12:47:50Z</time>
</trkpt>
<trkpt lat="43.020233000" lon="-2.763232000">
  <ele>1075.000000</ele>
  <time>2012-04-22T12:48:30Z</time>
</trkpt>
<trkpt lat="43.020205000" lon="-2.763236000">
  <ele>1075.000000</ele>
  <time>2012-04-22T12:49:10Z</time>
</trkpt>
<trkpt lat="43.020031000" lon="-2.763171000">
  <ele>1077.000000</ele>
  <time>2012-04-22T12:50:30Z</time>
</trkpt>
<trkpt lat="43.019764000" lon="-2.763097000">
  <ele>1080.000000</ele>
  <time>2012-04-22T12:51:10Z</time>
</trkpt>
<trkpt lat="43.019215000" lon="-2.763020000">
  <ele>1086.000000</ele>
  <time>2012-04-22T12:52:30Z</time>
</trkpt>
<trkpt lat="43.019115000" lon="-2.763065000">
  <ele>1088.000000</ele>
  <time>2012-04-22T12:53:10Z</time>
</trkpt>
<trkpt lat="43.019070000" lon="-2.763134000">
  <ele>1091.000000</ele>
  <time>2012-04-22T12:53:50Z</time>
</trkpt>
<trkpt lat="43.019062000" lon="-2.763092000">
  <ele>1090.000000</ele>
  <time>2012-04-22T12:54:30Z</time>
</trkpt>
<trkpt lat="43.019077000" lon="-2.763077000">
  <ele>1089.000000</ele>
  <time>2012-04-22T12:55:10Z</time>
</trkpt>
<trkpt lat="43.019291000" lon="-2.763319000">
  <ele>1094.000000</ele>
  <time>2012-04-22T12:55:50Z</time>
</trkpt>
<trkpt lat="43.019474000" lon="-2.763553000">
  <ele>1099.000000</ele>
  <time>2012-04-22T12:56:30Z</time>
</trkpt>
<trkpt lat="43.019482000" lon="-2.763547000">
  <ele>1099.000000</ele>
  <time>2012-04-22T12:57:10Z</time>
</trkpt>
<trkpt lat="43.019547000" lon="-2.763629000">
  <ele>1101.000000</ele>
  <time>2012-04-22T12:57:50Z</time>
</trkpt>
<trkpt lat="43.019608000" lon="-2.763690000">
  <ele>1102.000000</ele>
  <time>2012-04-22T12:58:30Z</time>
</trkpt>
<trkpt lat="43.019955000" lon="-2.763880000">
  <ele>1101.000000</ele>
  <time>2012-04-22T12:59:50Z</time>
</trkpt>
<trkpt lat="43.020226000" lon="-2.763956000">
  <ele>1097.000000</ele>
  <time>2012-04-22T13:00:30Z</time>
</trkpt>
<trkpt lat="43.020469000" lon="-2.764084000">
  <ele>1096.000000</ele>
  <time>2012-04-22T13:01:10Z</time>
</trkpt>
<trkpt lat="43.020699000" lon="-2.764282000">
  <ele>1097.000000</ele>
  <time>2012-04-22T13:01:50Z</time>
</trkpt>
<trkpt lat="43.020939000" lon="-2.764811000">
  <ele>1103.000000</ele>
  <time>2012-04-22T13:03:10Z</time>
</trkpt>
<trkpt lat="43.021019000" lon="-2.765025000">
  <ele>1105.000000</ele>
  <time>2012-04-22T13:03:50Z</time>
</trkpt>
<trkpt lat="43.021038000" lon="-2.765269000">
  <ele>1108.000000</ele>
  <time>2012-04-22T13:05:10Z</time>
</trkpt>
<trkpt lat="43.021061000" lon="-2.765272000">
  <ele>1108.000000</ele>
  <time>2012-04-22T13:06:30Z</time>
</trkpt>
<trkpt lat="43.021347000" lon="-2.765046000">
  <ele>1103.000000</ele>
  <time>2012-04-22T13:07:50Z</time>
</trkpt>
<trkpt lat="43.021564000" lon="-2.764809000">
  <ele>1103.000000</ele>
  <time>2012-04-22T13:08:30Z</time>
</trkpt>
<trkpt lat="43.021751000" lon="-2.764539000">
  <ele>1101.000000</ele>
  <time>2012-04-22T13:09:10Z</time>
</trkpt>
<trkpt lat="43.021915000" lon="-2.764538000">
  <ele>1104.000000</ele>
  <time>2012-04-22T13:09:50Z</time>
</trkpt>
<trkpt lat="43.021969000" lon="-2.764643000">
  <ele>1107.000000</ele>
  <time>2012-04-22T13:10:30Z</time>
</trkpt>
<trkpt lat="43.022060000" lon="-2.765158000">
  <ele>1120.000000</ele>
  <time>2012-04-22T13:11:50Z</time>
</trkpt>
<trkpt lat="43.022057000" lon="-2.765294000">
  <ele>1123.000000</ele>
  <time>2012-04-22T13:12:30Z</time>
</trkpt>
<trkpt lat="43.021992000" lon="-2.765507000">
  <ele>1127.000000</ele>
  <time>2012-04-22T13:13:10Z</time>
</trkpt>
<trkpt lat="43.022022000" lon="-2.765773000">
  <ele>1135.000000</ele>
  <time>2012-04-22T13:13:50Z</time>
</trkpt>
<trkpt lat="43.022148000" lon="-2.766104000">
  <ele>1147.000000</ele>
  <time>2012-04-22T13:14:30Z</time>
</trkpt>
<trkpt lat="43.022144000" lon="-2.766481000">
  <ele>1157.000000</ele>
  <time>2012-04-22T13:15:10Z</time>
</trkpt>
<trkpt lat="43.022186000" lon="-2.766584000">
  <ele>1161.000000</ele>
  <time>2012-04-22T13:15:50Z</time>
</trkpt>
<trkpt lat="43.022202000" lon="-2.766538000">
  <ele>1160.000000</ele>
  <time>2012-04-22T13:16:30Z</time>
</trkpt>
<trkpt lat="43.022442000" lon="-2.766335000">
  <ele>1164.000000</ele>
  <time>2012-04-22T13:17:10Z</time>
</trkpt>
<trkpt lat="43.022678000" lon="-2.766522000">
  <ele>1175.000000</ele>
  <time>2012-04-22T13:17:50Z</time>
</trkpt>
<trkpt lat="43.022842000" lon="-2.766571000">
  <ele>1181.000000</ele>
  <time>2012-04-22T13:18:30Z</time>
</trkpt>
<trkpt lat="43.022984000" lon="-2.766712000">
  <ele>1187.000000</ele>
  <time>2012-04-22T13:19:10Z</time>
</trkpt>
<trkpt lat="43.023186000" lon="-2.766962000">
  <ele>1194.000000</ele>
  <time>2012-04-22T13:19:50Z</time>
</trkpt>
<trkpt lat="43.023201000" lon="-2.767335000">
  <ele>1202.000000</ele>
  <time>2012-04-22T13:20:30Z</time>
</trkpt>
<trkpt lat="43.023262000" lon="-2.768077000">
  <ele>1222.000000</ele>
  <time>2012-04-22T13:21:50Z</time>
</trkpt>
<trkpt lat="43.023277000" lon="-2.768083000">
  <ele>1223.000000</ele>
  <time>2012-04-22T13:22:30Z</time>
</trkpt>
<trkpt lat="43.023315000" lon="-2.768188000">
  <ele>1226.000000</ele>
  <time>2012-04-22T13:24:30Z</time>
</trkpt>
<trkpt lat="43.023331000" lon="-2.768199000">
  <ele>1227.000000</ele>
  <time>2012-04-22T13:25:10Z</time>
</trkpt>
<trkpt lat="43.023319000" lon="-2.768188000">
  <ele>1226.000000</ele>
  <time>2012-04-22T13:25:50Z</time>
</trkpt>
<trkpt lat="43.023289000" lon="-2.768182000">
  <ele>1226.000000</ele>
  <time>2012-04-22T13:26:30Z</time>
</trkpt>
<trkpt lat="43.023178000" lon="-2.768523000">
  <ele>1233.000000</ele>
  <time>2012-04-22T13:27:10Z</time>
</trkpt>
<trkpt lat="43.023167000" lon="-2.768894000">
  <ele>1245.000000</ele>
  <time>2012-04-22T13:27:50Z</time>
</trkpt>
<trkpt lat="43.023224000" lon="-2.769259000">
  <ele>1258.000000</ele>
  <time>2012-04-22T13:28:30Z</time>
</trkpt>
<trkpt lat="43.023350000" lon="-2.769589000">
  <ele>1271.000000</ele>
  <time>2012-04-22T13:29:10Z</time>
</trkpt>
<trkpt lat="43.023506000" lon="-2.769890000">
  <ele>1281.000000</ele>
  <time>2012-04-22T13:29:50Z</time>
</trkpt>
<trkpt lat="43.023487000" lon="-2.769954000">
  <ele>1283.000000</ele>
  <time>2012-04-22T13:30:30Z</time>
</trkpt>
<trkpt lat="43.023483000" lon="-2.769992000">
  <ele>1284.000000</ele>
  <time>2012-04-22T13:31:10Z</time>
</trkpt>
<trkpt lat="43.023624000" lon="-2.770308000">
  <ele>1294.000000</ele>
  <time>2012-04-22T13:31:50Z</time>
</trkpt>
<trkpt lat="43.023750000" lon="-2.770637000">
  <ele>1303.000000</ele>
  <time>2012-04-22T13:32:30Z</time>
</trkpt>
<trkpt lat="43.023796000" lon="-2.770659000">
  <ele>1303.000000</ele>
  <time>2012-04-22T13:33:10Z</time>
</trkpt>
<trkpt lat="43.023880000" lon="-2.770802000">
  <ele>1306.000000</ele>
  <time>2012-04-22T13:33:50Z</time>
</trkpt>
<trkpt lat="43.023952000" lon="-2.771158000">
  <ele>1314.000000</ele>
  <time>2012-04-22T13:34:30Z</time>
</trkpt>
<trkpt lat="43.024054000" lon="-2.771498000">
  <ele>1320.000000</ele>
  <time>2012-04-22T13:35:10Z</time>
</trkpt>
<trkpt lat="43.024220000" lon="-2.771800000">
  <ele>1324.000000</ele>
  <time>2012-04-22T13:37:10Z</time>
</trkpt>
<trkpt lat="43.024399000" lon="-2.772082000">
  <ele>1327.000000</ele>
  <time>2012-04-22T13:37:50Z</time>
</trkpt>
<trkpt lat="43.024517000" lon="-2.772300000">
  <ele>1328.000000</ele>
  <time>2012-04-22T13:38:30Z</time>
</trkpt>
<trkpt lat="43.024574000" lon="-2.772636000">
  <ele>1331.000000</ele>
  <time>2012-04-22T13:39:10Z</time>
</trkpt>
<trkpt lat="43.024719000" lon="-2.772840000">
  <ele>1331.000000</ele>
  <time>2012-04-22T13:39:50Z</time>
</trkpt>
<trkpt lat="43.024853000" lon="-2.773157000">
  <ele>1331.000000</ele>
  <time>2012-04-22T13:40:30Z</time>
</trkpt>
<trkpt lat="43.024891000" lon="-2.773222000">
  <ele>1331.000000</ele>
  <time>2012-04-22T13:41:10Z</time>
</trkpt>
<trkpt lat="43.024982000" lon="-2.773347000">
  <ele>1330.000000</ele>
  <time>2012-04-22T13:42:30Z</time>
</trkpt>
<trkpt lat="43.025188000" lon="-2.773788000">
  <ele>1332.000000</ele>
  <time>2012-04-22T13:43:50Z</time>
</trkpt>
<trkpt lat="43.025398000" lon="-2.774030000">
  <ele>1330.000000</ele>
  <time>2012-04-22T13:44:30Z</time>
</trkpt>
<trkpt lat="43.025421000" lon="-2.774078000">
  <ele>1330.000000</ele>
  <time>2012-04-22T13:45:10Z</time>
</trkpt>
<trkpt lat="43.025543000" lon="-2.774163000">
  <ele>1330.000000</ele>
  <time>2012-04-22T13:45:50Z</time>
</trkpt>
<trkpt lat="43.025803000" lon="-2.774290000">
  <ele>1330.000000</ele>
  <time>2012-04-22T13:46:30Z</time>
</trkpt>
<trkpt lat="43.026070000" lon="-2.774391000">
  <ele>1330.000000</ele>
  <time>2012-04-22T13:47:10Z</time>
</trkpt>
<trkpt lat="43.026100000" lon="-2.774394000">
  <ele>1330.000000</ele>
  <time>2012-04-22T13:47:50Z</time>
</trkpt>
<trkpt lat="43.026371000" lon="-2.774494000">
  <ele>1332.000000</ele>
  <time>2012-04-22T13:49:10Z</time>
</trkpt>
<trkpt lat="43.026566000" lon="-2.774578000">
  <ele>1334.000000</ele>
  <time>2012-04-22T13:49:50Z</time>
</trkpt>
<trkpt lat="43.026836000" lon="-2.774678000">
  <ele>1336.000000</ele>
  <time>2012-04-22T13:51:10Z</time>
</trkpt>
<trkpt lat="43.027096000" lon="-2.774786000">
  <ele>1338.000000</ele>
  <time>2012-04-22T13:51:50Z</time>
</trkpt>
<trkpt lat="43.027168000" lon="-2.774798000">
  <ele>1339.000000</ele>
  <time>2012-04-22T13:52:30Z</time>
</trkpt>
<trkpt lat="43.027218000" lon="-2.774794000">
  <ele>1339.000000</ele>
  <time>2012-04-22T13:53:10Z</time>
</trkpt>
<trkpt lat="43.027485000" lon="-2.774856000">
  <ele>1341.000000</ele>
  <time>2012-04-22T13:53:50Z</time>
</trkpt>
<trkpt lat="43.027534000" lon="-2.774853000">
  <ele>1342.000000</ele>
  <time>2012-04-22T13:55:50Z</time>
</trkpt>
<trkpt lat="43.027802000" lon="-2.774798000">
  <ele>1345.000000</ele>
  <time>2012-04-22T13:56:30Z</time>
</trkpt>
<trkpt lat="43.027863000" lon="-2.774796000">
  <ele>1345.000000</ele>
  <time>2012-04-22T13:57:50Z</time>
</trkpt>
<trkpt lat="43.028133000" lon="-2.774852000">
  <ele>1348.000000</ele>
  <time>2012-04-22T13:58:30Z</time>
</trkpt>
<trkpt lat="43.028374000" lon="-2.774891000">
  <ele>1351.000000</ele>
  <time>2012-04-22T14:00:30Z</time>
</trkpt>
<trkpt lat="43.028507000" lon="-2.774903000">
  <ele>1353.000000</ele>
  <time>2012-04-22T14:01:50Z</time>
</trkpt>
<trkpt lat="43.028618000" lon="-2.774901000">
  <ele>1354.000000</ele>
  <time>2012-04-22T14:05:10Z</time>
</trkpt>
<trkpt lat="43.028881000" lon="-2.774993000">
  <ele>1358.000000</ele>
  <time>2012-04-22T14:05:50Z</time>
</trkpt>
<trkpt lat="43.028931000" lon="-2.774988000">
  <ele>1359.000000</ele>
  <time>2012-04-22T14:06:30Z</time>
</trkpt>
<trkpt lat="43.029228000" lon="-2.775042000">
  <ele>1364.000000</ele>
  <time>2012-04-22T14:09:10Z</time>
</trkpt>
<trkpt lat="43.029552000" lon="-2.775244000">
  <ele>1369.000000</ele>
  <time>2012-04-22T14:10:30Z</time>
</trkpt>
<trkpt lat="43.029785000" lon="-2.775438000">
  <ele>1373.000000</ele>
  <time>2012-04-22T14:11:10Z</time>
</trkpt>
<trkpt lat="43.030029000" lon="-2.775616000">
  <ele>1375.000000</ele>
  <time>2012-04-22T14:11:50Z</time>
</trkpt>
<trkpt lat="43.030205000" lon="-2.775709000">
  <ele>1377.000000</ele>
  <time>2012-04-22T14:12:30Z</time>
</trkpt>
<trkpt lat="43.030529000" lon="-2.776033000">
  <ele>1381.000000</ele>
  <time>2012-04-22T14:13:50Z</time>
</trkpt>
<trkpt lat="43.030712000" lon="-2.776310000">
  <ele>1385.000000</ele>
  <time>2012-04-22T14:14:30Z</time>
</trkpt>
<trkpt lat="43.030766000" lon="-2.776355000">
  <ele>1387.000000</ele>
  <time>2012-04-22T14:15:10Z</time>
</trkpt>
<trkpt lat="43.031200000" lon="-2.776881000">
  <ele>1397.000000</ele>
  <time>2012-04-22T14:17:10Z</time>
</trkpt>
<trkpt lat="43.031414000" lon="-2.777096000">
  <ele>1403.000000</ele>
  <time>2012-04-22T14:17:50Z</time>
</trkpt>
<trkpt lat="43.031582000" lon="-2.777516000">
  <ele>1405.000000</ele>
  <time>2012-04-22T14:19:10Z</time>
</trkpt>
<trkpt lat="43.031780000" lon="-2.777774000">
  <ele>1410.000000</ele>
  <time>2012-04-22T14:19:50Z</time>
</trkpt>
<trkpt lat="43.032131000" lon="-2.778342000">
  <ele>1419.000000</ele>
  <time>2012-04-22T14:21:10Z</time>
</trkpt>
<trkpt lat="43.032318000" lon="-2.778610000">
  <ele>1424.000000</ele>
  <time>2012-04-22T14:21:50Z</time>
</trkpt>
<trkpt lat="43.032494000" lon="-2.778903000">
  <ele>1429.000000</ele>
  <time>2012-04-22T14:22:30Z</time>
</trkpt>
<trkpt lat="43.033058000" lon="-2.779728000">
  <ele>1445.000000</ele>
  <time>2012-04-22T14:24:30Z</time>
</trkpt>
<trkpt lat="43.033077000" lon="-2.779740000">
  <ele>1446.000000</ele>
  <time>2012-04-22T14:25:10Z</time>
</trkpt>
<trkpt lat="43.033253000" lon="-2.780049000">
  <ele>1451.000000</ele>
  <time>2012-04-22T14:26:30Z</time>
</trkpt>
<trkpt lat="43.033428000" lon="-2.780334000">
  <ele>1456.000000</ele>
  <time>2012-04-22T14:27:10Z</time>
</trkpt>
<trkpt lat="43.033588000" lon="-2.780631000">
  <ele>1460.000000</ele>
  <time>2012-04-22T14:27:50Z</time>
</trkpt>
<trkpt lat="43.033722000" lon="-2.780916000">
  <ele>1463.000000</ele>
  <time>2012-04-22T14:28:30Z</time>
</trkpt>
<trkpt lat="43.033768000" lon="-2.781139000">
  <ele>1464.000000</ele>
  <time>2012-04-22T14:29:10Z</time>
</trkpt>
<trkpt lat="43.033760000" lon="-2.781204000">
  <ele>1464.000000</ele>
  <time>2012-04-22T14:29:50Z</time>
</trkpt>
<trkpt lat="43.033936000" lon="-2.781537000">
  <ele>1465.000000</ele>
  <time>2012-04-22T14:31:10Z</time>
</trkpt>
<trkpt lat="43.034237000" lon="-2.781990000">
  <ele>1470.000000</ele>
  <time>2012-04-22T14:32:30Z</time>
</trkpt>
<trkpt lat="43.033989000" lon="-2.781636000">
  <ele>1466.000000</ele>
  <time>2012-04-22T14:33:10Z</time>
</trkpt>
<trkpt lat="43.033852000" lon="-2.781416000">
  <ele>1464.000000</ele>
  <time>2012-04-22T14:33:50Z</time>
</trkpt>
<trkpt lat="43.033710000" lon="-2.781094000">
  <ele>1463.000000</ele>
  <time>2012-04-22T14:34:30Z</time>
</trkpt>
<trkpt lat="43.033401000" lon="-2.780475000">
  <ele>1455.000000</ele>
  <time>2012-04-22T14:35:50Z</time>
</trkpt>
<trkpt lat="43.033058000" lon="-2.779887000">
  <ele>1445.000000</ele>
  <time>2012-04-22T14:37:10Z</time>
</trkpt>
<trkpt lat="43.032925000" lon="-2.779560000">
  <ele>1442.000000</ele>
  <time>2012-04-22T14:37:50Z</time>
</trkpt>
<trkpt lat="43.032768000" lon="-2.779242000">
  <ele>1438.000000</ele>
  <time>2012-04-22T14:38:30Z</time>
</trkpt>
<trkpt lat="43.032642000" lon="-2.779094000">
  <ele>1434.000000</ele>
  <time>2012-04-22T14:39:50Z</time>
</trkpt>
<trkpt lat="43.032291000" lon="-2.778504000">
  <ele>1423.000000</ele>
  <time>2012-04-22T14:41:10Z</time>
</trkpt>
<trkpt lat="43.032097000" lon="-2.778235000">
  <ele>1418.000000</ele>
  <time>2012-04-22T14:41:50Z</time>
</trkpt>
<trkpt lat="43.031738000" lon="-2.777661000">
  <ele>1410.000000</ele>
  <time>2012-04-22T14:43:10Z</time>
</trkpt>
<trkpt lat="43.031582000" lon="-2.777489000">
  <ele>1406.000000</ele>
  <time>2012-04-22T14:44:30Z</time>
</trkpt>
<trkpt lat="43.031525000" lon="-2.777363000">
  <ele>1405.000000</ele>
  <time>2012-04-22T14:45:10Z</time>
</trkpt>
<trkpt lat="43.031406000" lon="-2.777025000">
  <ele>1403.000000</ele>
  <time>2012-04-22T14:45:50Z</time>
</trkpt>
<trkpt lat="43.031147000" lon="-2.776761000">
  <ele>1396.000000</ele>
  <time>2012-04-22T14:47:10Z</time>
</trkpt>
<trkpt lat="43.030949000" lon="-2.776505000">
  <ele>1392.000000</ele>
  <time>2012-04-22T14:47:50Z</time>
</trkpt>
<trkpt lat="43.030914000" lon="-2.776451000">
  <ele>1391.000000</ele>
  <time>2012-04-22T14:48:30Z</time>
</trkpt>
<trkpt lat="43.030689000" lon="-2.776182000">
  <ele>1386.000000</ele>
  <time>2012-04-22T14:49:50Z</time>
</trkpt>
<trkpt lat="43.030499000" lon="-2.775908000">
  <ele>1382.000000</ele>
  <time>2012-04-22T14:50:30Z</time>
</trkpt>
<trkpt lat="43.030266000" lon="-2.775695000">
  <ele>1378.000000</ele>
  <time>2012-04-22T14:51:10Z</time>
</trkpt>
<trkpt lat="43.030083000" lon="-2.775560000">
  <ele>1377.000000</ele>
  <time>2012-04-22T14:51:50Z</time>
</trkpt>
<trkpt lat="43.030006000" lon="-2.775544000">
  <ele>1375.000000</ele>
  <time>2012-04-22T14:52:30Z</time>
</trkpt>
<trkpt lat="43.029766000" lon="-2.775359000">
  <ele>1373.000000</ele>
  <time>2012-04-22T14:53:10Z</time>
</trkpt>
<trkpt lat="43.029541000" lon="-2.775152000">
  <ele>1369.000000</ele>
  <time>2012-04-22T14:53:50Z</time>
</trkpt>
<trkpt lat="43.029366000" lon="-2.775030000">
  <ele>1367.000000</ele>
  <time>2012-04-22T14:54:30Z</time>
</trkpt>
<trkpt lat="43.029091000" lon="-2.774956000">
  <ele>1362.000000</ele>
  <time>2012-04-22T14:55:10Z</time>
</trkpt>
<trkpt lat="43.028549000" lon="-2.774853000">
  <ele>1353.000000</ele>
  <time>2012-04-22T14:56:30Z</time>
</trkpt>
<trkpt lat="43.028278000" lon="-2.774839000">
  <ele>1350.000000</ele>
  <time>2012-04-22T14:57:10Z</time>
</trkpt>
<trkpt lat="43.028008000" lon="-2.774771000">
  <ele>1347.000000</ele>
  <time>2012-04-22T14:57:50Z</time>
</trkpt>
<trkpt lat="43.027729000" lon="-2.774753000">
  <ele>1344.000000</ele>
  <time>2012-04-22T14:58:30Z</time>
</trkpt>
<trkpt lat="43.027447000" lon="-2.774771000">
  <ele>1342.000000</ele>
  <time>2012-04-22T14:59:10Z</time>
</trkpt>
<trkpt lat="43.027298000" lon="-2.774717000">
  <ele>1340.000000</ele>
  <time>2012-04-22T14:59:50Z</time>
</trkpt>
<trkpt lat="43.027187000" lon="-2.774651000">
  <ele>1340.000000</ele>
  <time>2012-04-22T15:00:30Z</time>
</trkpt>
<trkpt lat="43.026958000" lon="-2.774595000">
  <ele>1338.000000</ele>
  <time>2012-04-22T15:01:10Z</time>
</trkpt>
<trkpt lat="43.026913000" lon="-2.774565000">
  <ele>1338.000000</ele>
  <time>2012-04-22T15:01:50Z</time>
</trkpt>
<trkpt lat="43.026646000" lon="-2.774453000">
  <ele>1334.000000</ele>
  <time>2012-04-22T15:02:30Z</time>
</trkpt>
<trkpt lat="43.026390000" lon="-2.774318000">
  <ele>1331.000000</ele>
  <time>2012-04-22T15:03:10Z</time>
</trkpt>
<trkpt lat="43.026215000" lon="-2.774265000">
  <ele>1330.000000</ele>
  <time>2012-04-22T15:04:30Z</time>
</trkpt>
<trkpt lat="43.025723000" lon="-2.774159000">
  <ele>1330.000000</ele>
  <time>2012-04-22T15:05:50Z</time>
</trkpt>
<trkpt lat="43.025471000" lon="-2.774089000">
  <ele>1330.000000</ele>
  <time>2012-04-22T15:07:10Z</time>
</trkpt>
<trkpt lat="43.025185000" lon="-2.773738000">
  <ele>1332.000000</ele>
  <time>2012-04-22T15:09:10Z</time>
</trkpt>
<trkpt lat="43.025105000" lon="-2.773607000">
  <ele>1331.000000</ele>
  <time>2012-04-22T15:10:30Z</time>
</trkpt>
<trkpt lat="43.025066000" lon="-2.773567000">
  <ele>1331.000000</ele>
  <time>2012-04-22T15:11:10Z</time>
</trkpt>
<trkpt lat="43.025108000" lon="-2.773604000">
  <ele>1331.000000</ele>
  <time>2012-04-22T15:12:30Z</time>
</trkpt>
<trkpt lat="43.025116000" lon="-2.773596000">
  <ele>1331.000000</ele>
  <time>2012-04-22T15:13:10Z</time>
</trkpt>
<trkpt lat="43.025108000" lon="-2.773546000">
  <ele>1331.000000</ele>
  <time>2012-04-22T15:13:50Z</time>
</trkpt>
<trkpt lat="43.025040000" lon="-2.773389000">
  <ele>1330.000000</ele>
  <time>2012-04-22T15:14:30Z</time>
</trkpt>
<trkpt lat="43.024849000" lon="-2.773122000">
  <ele>1331.000000</ele>
  <time>2012-04-22T15:15:10Z</time>
</trkpt>
<trkpt lat="43.024731000" lon="-2.772785000">
  <ele>1331.000000</ele>
  <time>2012-04-22T15:16:30Z</time>
</trkpt>
<trkpt lat="43.024567000" lon="-2.772503000">
  <ele>1330.000000</ele>
  <time>2012-04-22T15:17:10Z</time>
</trkpt>
<trkpt lat="43.024521000" lon="-2.772229000">
  <ele>1327.000000</ele>
  <time>2012-04-22T15:17:50Z</time>
</trkpt>
<trkpt lat="43.024399000" lon="-2.771899000">
  <ele>1324.000000</ele>
  <time>2012-04-22T15:18:30Z</time>
</trkpt>
<trkpt lat="43.024277000" lon="-2.771614000">
  <ele>1321.000000</ele>
  <time>2012-04-22T15:19:10Z</time>
</trkpt>
<trkpt lat="43.024235000" lon="-2.771545000">
  <ele>1320.000000</ele>
  <time>2012-04-22T15:19:50Z</time>
</trkpt>
<trkpt lat="43.024097000" lon="-2.771222000">
  <ele>1315.000000</ele>
  <time>2012-04-22T15:21:10Z</time>
</trkpt>
<trkpt lat="43.024052000" lon="-2.771049000">
  <ele>1311.000000</ele>
  <time>2012-04-22T15:22:30Z</time>
</trkpt>
<trkpt lat="43.024048000" lon="-2.771003000">
  <ele>1310.000000</ele>
  <time>2012-04-22T15:23:10Z</time>
</trkpt>
<trkpt lat="43.024033000" lon="-2.770973000">
  <ele>1309.000000</ele>
  <time>2012-04-22T15:23:50Z</time>
</trkpt>
<trkpt lat="43.024021000" lon="-2.770963000">
  <ele>1309.000000</ele>
  <time>2012-04-22T15:24:30Z</time>
</trkpt>
<trkpt lat="43.023895000" lon="-2.770721000">
  <ele>1304.000000</ele>
  <time>2012-04-22T15:25:50Z</time>
</trkpt>
<trkpt lat="43.023663000" lon="-2.770535000">
  <ele>1300.000000</ele>
  <time>2012-04-22T15:26:30Z</time>
</trkpt>
<trkpt lat="43.023582000" lon="-2.770176000">
  <ele>1290.000000</ele>
  <time>2012-04-22T15:27:10Z</time>
</trkpt>
<trkpt lat="43.023491000" lon="-2.769902000">
  <ele>1282.000000</ele>
  <time>2012-04-22T15:27:50Z</time>
</trkpt>
<trkpt lat="43.023460000" lon="-2.769746000">
  <ele>1276.000000</ele>
  <time>2012-04-22T15:28:30Z</time>
</trkpt>
<trkpt lat="43.023342000" lon="-2.769475000">
  <ele>1267.000000</ele>
  <time>2012-04-22T15:29:50Z</time>
</trkpt>
<trkpt lat="43.023262000" lon="-2.769220000">
  <ele>1257.000000</ele>
  <time>2012-04-22T15:30:30Z</time>
</trkpt>
<trkpt lat="43.023262000" lon="-2.769178000">
  <ele>1256.000000</ele>
  <time>2012-04-22T15:31:10Z</time>
</trkpt>
<trkpt lat="43.023228000" lon="-2.768927000">
  <ele>1247.000000</ele>
  <time>2012-04-22T15:31:50Z</time>
</trkpt>
<trkpt lat="43.023151000" lon="-2.768682000">
  <ele>1237.000000</ele>
  <time>2012-04-22T15:32:30Z</time>
</trkpt>
<trkpt lat="43.023144000" lon="-2.768542000">
  <ele>1233.000000</ele>
  <time>2012-04-22T15:33:10Z</time>
</trkpt>
<trkpt lat="43.023232000" lon="-2.768332000">
  <ele>1229.000000</ele>
  <time>2012-04-22T15:34:30Z</time>
</trkpt>
<trkpt lat="43.023232000" lon="-2.767956000">
  <ele>1218.000000</ele>
  <time>2012-04-22T15:35:10Z</time>
</trkpt>
<trkpt lat="43.023205000" lon="-2.767780000">
  <ele>1213.000000</ele>
  <time>2012-04-22T15:35:50Z</time>
</trkpt>
<trkpt lat="43.023224000" lon="-2.767667000">
  <ele>1211.000000</ele>
  <time>2012-04-22T15:36:30Z</time>
</trkpt>
<trkpt lat="43.023209000" lon="-2.767200000">
  <ele>1199.000000</ele>
  <time>2012-04-22T15:37:50Z</time>
</trkpt>
<trkpt lat="43.023151000" lon="-2.766953000">
  <ele>1193.000000</ele>
  <time>2012-04-22T15:38:30Z</time>
</trkpt>
<trkpt lat="43.023037000" lon="-2.766620000">
  <ele>1186.000000</ele>
  <time>2012-04-22T15:39:10Z</time>
</trkpt>
<trkpt lat="43.022766000" lon="-2.766547000">
  <ele>1179.000000</ele>
  <time>2012-04-22T15:39:50Z</time>
</trkpt>
<trkpt lat="43.022675000" lon="-2.766334000">
  <ele>1172.000000</ele>
  <time>2012-04-22T15:40:30Z</time>
</trkpt>
<trkpt lat="43.022495000" lon="-2.766402000">
  <ele>1167.000000</ele>
  <time>2012-04-22T15:41:10Z</time>
</trkpt>
<trkpt lat="43.022240000" lon="-2.766532000">
  <ele>1161.000000</ele>
  <time>2012-04-22T15:41:50Z</time>
</trkpt>
<trkpt lat="43.022190000" lon="-2.766493000">
  <ele>1159.000000</ele>
  <time>2012-04-22T15:42:30Z</time>
</trkpt>
<trkpt lat="43.022193000" lon="-2.766505000">
  <ele>1159.000000</ele>
  <time>2012-04-22T15:43:10Z</time>
</trkpt>
<trkpt lat="43.022190000" lon="-2.766310000">
  <ele>1154.000000</ele>
  <time>2012-04-22T15:43:50Z</time>
</trkpt>
<trkpt lat="43.022213000" lon="-2.766261000">
  <ele>1154.000000</ele>
  <time>2012-04-22T15:44:30Z</time>
</trkpt>
<trkpt lat="43.022182000" lon="-2.766232000">
  <ele>1152.000000</ele>
  <time>2012-04-22T15:45:10Z</time>
</trkpt>
<trkpt lat="43.022141000" lon="-2.765823000">
  <ele>1140.000000</ele>
  <time>2012-04-22T15:46:30Z</time>
</trkpt>
<trkpt lat="43.022129000" lon="-2.765794000">
  <ele>1138.000000</ele>
  <time>2012-04-22T15:47:10Z</time>
</trkpt>
<trkpt lat="43.022137000" lon="-2.765537000">
  <ele>1132.000000</ele>
  <time>2012-04-22T15:48:30Z</time>
</trkpt>
<trkpt lat="43.022060000" lon="-2.765171000">
  <ele>1120.000000</ele>
  <time>2012-04-22T15:49:10Z</time>
</trkpt>
<trkpt lat="43.021999000" lon="-2.764808000">
  <ele>1111.000000</ele>
  <time>2012-04-22T15:49:50Z</time>
</trkpt>
<trkpt lat="43.021931000" lon="-2.764452000">
  <ele>1103.000000</ele>
  <time>2012-04-22T15:50:30Z</time>
</trkpt>
<trkpt lat="43.021912000" lon="-2.764445000">
  <ele>1103.000000</ele>
  <time>2012-04-22T15:51:10Z</time>
</trkpt>
<trkpt lat="43.021828000" lon="-2.764363000">
  <ele>1100.000000</ele>
  <time>2012-04-22T15:51:50Z</time>
</trkpt>
<trkpt lat="43.021759000" lon="-2.764403000">
  <ele>1099.000000</ele>
  <time>2012-04-22T15:52:30Z</time>
</trkpt>
<trkpt lat="43.021687000" lon="-2.764554000">
  <ele>1100.000000</ele>
  <time>2012-04-22T15:53:10Z</time>
</trkpt>
<trkpt lat="43.021694000" lon="-2.764553000">
  <ele>1101.000000</ele>
  <time>2012-04-22T15:53:50Z</time>
</trkpt>
<trkpt lat="43.021618000" lon="-2.764791000">
  <ele>1104.000000</ele>
  <time>2012-04-22T15:56:30Z</time>
</trkpt>
<trkpt lat="43.021477000" lon="-2.765079000">
  <ele>1106.000000</ele>
  <time>2012-04-22T15:57:10Z</time>
</trkpt>
<trkpt lat="43.021301000" lon="-2.765324000">
  <ele>1106.000000</ele>
  <time>2012-04-22T15:58:30Z</time>
</trkpt>
<trkpt lat="43.021194000" lon="-2.765405000">
  <ele>1107.000000</ele>
  <time>2012-04-22T15:59:10Z</time>
</trkpt>
<trkpt lat="43.021152000" lon="-2.765398000">
  <ele>1108.000000</ele>
  <time>2012-04-22T15:59:50Z</time>
</trkpt>
<trkpt lat="43.021091000" lon="-2.765232000">
  <ele>1107.000000</ele>
  <time>2012-04-22T16:00:30Z</time>
</trkpt>
<trkpt lat="43.021019000" lon="-2.765150000">
  <ele>1107.000000</ele>
  <time>2012-04-22T16:01:10Z</time>
</trkpt>
<trkpt lat="43.020927000" lon="-2.764794000">
  <ele>1103.000000</ele>
  <time>2012-04-22T16:01:50Z</time>
</trkpt>
<trkpt lat="43.020805000" lon="-2.764466000">
  <ele>1099.000000</ele>
  <time>2012-04-22T16:02:30Z</time>
</trkpt>
<trkpt lat="43.020763000" lon="-2.764415000">
  <ele>1099.000000</ele>
  <time>2012-04-22T16:03:10Z</time>
</trkpt>
<trkpt lat="43.020504000" lon="-2.764273000">
  <ele>1100.000000</ele>
  <time>2012-04-22T16:03:50Z</time>
</trkpt>
<trkpt lat="43.020241000" lon="-2.764181000">
  <ele>1102.000000</ele>
  <time>2012-04-22T16:04:30Z</time>
</trkpt>
<trkpt lat="43.020138000" lon="-2.764111000">
  <ele>1102.000000</ele>
  <time>2012-04-22T16:05:10Z</time>
</trkpt>
<trkpt lat="43.019875000" lon="-2.763867000">
  <ele>1102.000000</ele>
  <time>2012-04-22T16:06:30Z</time>
</trkpt>
<trkpt lat="43.019646000" lon="-2.763615000">
  <ele>1099.000000</ele>
  <time>2012-04-22T16:07:50Z</time>
</trkpt>
<trkpt lat="43.019409000" lon="-2.763417000">
  <ele>1096.000000</ele>
  <time>2012-04-22T16:08:30Z</time>
</trkpt>
<trkpt lat="43.019230000" lon="-2.763334000">
  <ele>1095.000000</ele>
  <time>2012-04-22T16:09:10Z</time>
</trkpt>
<trkpt lat="43.019211000" lon="-2.763149000">
  <ele>1090.000000</ele>
  <time>2012-04-22T16:09:50Z</time>
</trkpt>
<trkpt lat="43.019215000" lon="-2.763126000">
  <ele>1089.000000</ele>
  <time>2012-04-22T16:10:30Z</time>
</trkpt>
<trkpt lat="43.019245000" lon="-2.763096000">
  <ele>1088.000000</ele>
  <time>2012-04-22T16:11:10Z</time>
</trkpt>
<trkpt lat="43.019375000" lon="-2.763094000">
  <ele>1086.000000</ele>
  <time>2012-04-22T16:11:50Z</time>
</trkpt>
<trkpt lat="43.019653000" lon="-2.763178000">
  <ele>1085.000000</ele>
  <time>2012-04-22T16:14:30Z</time>
</trkpt>
<trkpt lat="43.020053000" lon="-2.763230000">
  <ele>1078.000000</ele>
  <time>2012-04-22T16:16:30Z</time>
</trkpt>
<trkpt lat="43.020195000" lon="-2.762911000">
  <ele>1064.000000</ele>
  <time>2012-04-22T16:17:10Z</time>
</trkpt>
<trkpt lat="43.020012000" lon="-2.762642000">
  <ele>1058.000000</ele>
  <time>2012-04-22T16:17:50Z</time>
</trkpt>
<trkpt lat="43.019928000" lon="-2.762574000">
  <ele>1058.000000</ele>
  <time>2012-04-22T16:18:30Z</time>
</trkpt>
<trkpt lat="43.019897000" lon="-2.762527000">
  <ele>1056.000000</ele>
  <time>2012-04-22T16:19:10Z</time>
</trkpt>
<trkpt lat="43.019844000" lon="-2.762405000">
  <ele>1053.000000</ele>
  <time>2012-04-22T16:19:50Z</time>
</trkpt>
<trkpt lat="43.019730000" lon="-2.762202000">
  <ele>1047.000000</ele>
  <time>2012-04-22T16:20:30Z</time>
</trkpt>
<trkpt lat="43.019447000" lon="-2.762026000">
  <ele>1045.000000</ele>
  <time>2012-04-22T16:21:50Z</time>
</trkpt>
<trkpt lat="43.019333000" lon="-2.761970000">
  <ele>1044.000000</ele>
  <time>2012-04-22T16:23:10Z</time>
</trkpt>
<trkpt lat="43.019306000" lon="-2.761945000">
  <ele>1044.000000</ele>
  <time>2012-04-22T16:23:50Z</time>
</trkpt>
<trkpt lat="43.019173000" lon="-2.761882000">
  <ele>1043.000000</ele>
  <time>2012-04-22T16:24:30Z</time>
</trkpt>
<trkpt lat="43.018921000" lon="-2.761708000">
  <ele>1039.000000</ele>
  <time>2012-04-22T16:25:10Z</time>
</trkpt>
<trkpt lat="43.018669000" lon="-2.761515000">
  <ele>1032.000000</ele>
  <time>2012-04-22T16:25:50Z</time>
</trkpt>
<trkpt lat="43.018444000" lon="-2.761307000">
  <ele>1022.000000</ele>
  <time>2012-04-22T16:26:30Z</time>
</trkpt>
<trkpt lat="43.018425000" lon="-2.761274000">
  <ele>1021.000000</ele>
  <time>2012-04-22T16:27:10Z</time>
</trkpt>
<trkpt lat="43.018311000" lon="-2.761170000">
  <ele>1017.000000</ele>
  <time>2012-04-22T16:27:50Z</time>
</trkpt>
<trkpt lat="43.018131000" lon="-2.761096000">
  <ele>1013.000000</ele>
  <time>2012-04-22T16:28:30Z</time>
</trkpt>
<trkpt lat="43.017971000" lon="-2.760808000">
  <ele>1003.000000</ele>
  <time>2012-04-22T16:29:10Z</time>
</trkpt>
<trkpt lat="43.017616000" lon="-2.760659000">
  <ele>992.000000</ele>
  <time>2012-04-22T16:30:30Z</time>
</trkpt>
<trkpt lat="43.017063000" lon="-2.760701000">
  <ele>981.000000</ele>
  <time>2012-04-22T16:31:50Z</time>
</trkpt>
<trkpt lat="43.016792000" lon="-2.760742000">
  <ele>976.000000</ele>
  <time>2012-04-22T16:32:30Z</time>
</trkpt>
<trkpt lat="43.016495000" lon="-2.760672000">
  <ele>968.000000</ele>
  <time>2012-04-22T16:33:50Z</time>
</trkpt>
<trkpt lat="43.016129000" lon="-2.760768000">
  <ele>965.000000</ele>
  <time>2012-04-22T16:35:50Z</time>
</trkpt>
<trkpt lat="43.015877000" lon="-2.760925000">
  <ele>968.000000</ele>
  <time>2012-04-22T16:36:30Z</time>
</trkpt>
<trkpt lat="43.015606000" lon="-2.761015000">
  <ele>970.000000</ele>
  <time>2012-04-22T16:37:10Z</time>
</trkpt>
<trkpt lat="43.015343000" lon="-2.760931000">
  <ele>967.000000</ele>
  <time>2012-04-22T16:37:50Z</time>
</trkpt>
<trkpt lat="43.015163000" lon="-2.760773000">
  <ele>963.000000</ele>
  <time>2012-04-22T16:39:10Z</time>
</trkpt>
<trkpt lat="43.015099000" lon="-2.760680000">
  <ele>961.000000</ele>
  <time>2012-04-22T16:39:50Z</time>
</trkpt>
<trkpt lat="43.014908000" lon="-2.760451000">
  <ele>956.000000</ele>
  <time>2012-04-22T16:40:30Z</time>
</trkpt>
<trkpt lat="43.014759000" lon="-2.760385000">
  <ele>955.000000</ele>
  <time>2012-04-22T16:41:50Z</time>
</trkpt>
<trkpt lat="43.014690000" lon="-2.760373000">
  <ele>955.000000</ele>
  <time>2012-04-22T16:43:10Z</time>
</trkpt>
<trkpt lat="43.014481000" lon="-2.760238000">
  <ele>950.000000</ele>
  <time>2012-04-22T16:44:30Z</time>
</trkpt>
<trkpt lat="43.014217000" lon="-2.760113000">
  <ele>944.000000</ele>
  <time>2012-04-22T16:45:10Z</time>
</trkpt>
<trkpt lat="43.014061000" lon="-2.760050000">
  <ele>941.000000</ele>
  <time>2012-04-22T16:45:50Z</time>
</trkpt>
<trkpt lat="43.014053000" lon="-2.760062000">
  <ele>941.000000</ele>
  <time>2012-04-22T16:46:30Z</time>
</trkpt>
<trkpt lat="43.013779000" lon="-2.759950000">
  <ele>936.000000</ele>
  <time>2012-04-22T16:47:50Z</time>
</trkpt>
<trkpt lat="43.013676000" lon="-2.759938000">
  <ele>933.000000</ele>
  <time>2012-04-22T16:48:30Z</time>
</trkpt>
<trkpt lat="43.013493000" lon="-2.759825000">
  <ele>924.000000</ele>
  <time>2012-04-22T16:49:10Z</time>
</trkpt>
<trkpt lat="43.013313000" lon="-2.759798000">
  <ele>917.000000</ele>
  <time>2012-04-22T16:49:50Z</time>
</trkpt>
<trkpt lat="43.013210000" lon="-2.759489000">
  <ele>907.000000</ele>
  <time>2012-04-22T16:50:30Z</time>
</trkpt>
<trkpt lat="43.013187000" lon="-2.759363000">
  <ele>904.000000</ele>
  <time>2012-04-22T16:51:10Z</time>
</trkpt>
<trkpt lat="43.013081000" lon="-2.759077000">
  <ele>896.000000</ele>
  <time>2012-04-22T16:53:10Z</time>
</trkpt>
<trkpt lat="43.012970000" lon="-2.758846000">
  <ele>889.000000</ele>
  <time>2012-04-22T16:53:50Z</time>
</trkpt>
<trkpt lat="43.012920000" lon="-2.758475000">
  <ele>884.000000</ele>
  <time>2012-04-22T16:54:30Z</time>
</trkpt>
<trkpt lat="43.012856000" lon="-2.758380000">
  <ele>881.000000</ele>
  <time>2012-04-22T16:55:10Z</time>
</trkpt>
<trkpt lat="43.012783000" lon="-2.758145000">
  <ele>877.000000</ele>
  <time>2012-04-22T16:55:50Z</time>
</trkpt>
<trkpt lat="43.012764000" lon="-2.758139000">
  <ele>877.000000</ele>
  <time>2012-04-22T16:56:30Z</time>
</trkpt>
<trkpt lat="43.012474000" lon="-2.757837000">
  <ele>867.000000</ele>
  <time>2012-04-22T16:57:50Z</time>
</trkpt>
<trkpt lat="43.012421000" lon="-2.757852000">
  <ele>866.000000</ele>
  <time>2012-04-22T16:58:30Z</time>
</trkpt>
<trkpt lat="43.012390000" lon="-2.757972000">
  <ele>866.000000</ele>
  <time>2012-04-22T16:59:10Z</time>
</trkpt>
<trkpt lat="43.012280000" lon="-2.758175000">
  <ele>865.000000</ele>
  <time>2012-04-22T16:59:50Z</time>
</trkpt>
<trkpt lat="43.012196000" lon="-2.758197000">
  <ele>863.000000</ele>
  <time>2012-04-22T17:00:30Z</time>
</trkpt>
<trkpt lat="43.012039000" lon="-2.758126000">
  <ele>860.000000</ele>
  <time>2012-04-22T17:01:10Z</time>
</trkpt>
<trkpt lat="43.011856000" lon="-2.757820000">
  <ele>859.000000</ele>
  <time>2012-04-22T17:01:50Z</time>
</trkpt>
<trkpt lat="43.011822000" lon="-2.757443000">
  <ele>856.000000</ele>
  <time>2012-04-22T17:02:30Z</time>
</trkpt>
<trkpt lat="43.011772000" lon="-2.757233000">
  <ele>854.000000</ele>
  <time>2012-04-22T17:03:10Z</time>
</trkpt>
<trkpt lat="43.011696000" lon="-2.757046000">
  <ele>851.000000</ele>
  <time>2012-04-22T17:03:50Z</time>
</trkpt>
<trkpt lat="43.011688000" lon="-2.757039000">
  <ele>851.000000</ele>
  <time>2012-04-22T17:04:30Z</time>
</trkpt>
<trkpt lat="43.011543000" lon="-2.756728000">
  <ele>847.000000</ele>
  <time>2012-04-22T17:05:10Z</time>
</trkpt>
<trkpt lat="43.011360000" lon="-2.756274000">
  <ele>839.000000</ele>
  <time>2012-04-22T17:06:30Z</time>
</trkpt>
<trkpt lat="43.011257000" lon="-2.755922000">
  <ele>834.000000</ele>
  <time>2012-04-22T17:07:10Z</time>
</trkpt>
<trkpt lat="43.011097000" lon="-2.755619000">
  <ele>831.000000</ele>
  <time>2012-04-22T17:07:50Z</time>
</trkpt>
<trkpt lat="43.010998000" lon="-2.755535000">
  <ele>830.000000</ele>
  <time>2012-04-22T17:08:30Z</time>
</trkpt>
<trkpt lat="43.010761000" lon="-2.755281000">
  <ele>826.000000</ele>
  <time>2012-04-22T17:09:50Z</time>
</trkpt>
<trkpt lat="43.010513000" lon="-2.755122000">
  <ele>823.000000</ele>
  <time>2012-04-22T17:10:30Z</time>
</trkpt>
<trkpt lat="43.010349000" lon="-2.754817000">
  <ele>820.000000</ele>
  <time>2012-04-22T17:11:10Z</time>
</trkpt>
<trkpt lat="43.010159000" lon="-2.754546000">
  <ele>818.000000</ele>
  <time>2012-04-22T17:11:50Z</time>
</trkpt>
<trkpt lat="43.010128000" lon="-2.754409000">
  <ele>817.000000</ele>
  <time>2012-04-22T17:12:30Z</time>
</trkpt>
<trkpt lat="43.009933000" lon="-2.754186000">
  <ele>815.000000</ele>
  <time>2012-04-22T17:13:10Z</time>
</trkpt>
<trkpt lat="43.009731000" lon="-2.753763000">
  <ele>810.000000</ele>
  <time>2012-04-22T17:14:30Z</time>
</trkpt>
<trkpt lat="43.009563000" lon="-2.753463000">
  <ele>806.000000</ele>
  <time>2012-04-22T17:15:10Z</time>
</trkpt>
<trkpt lat="43.009571000" lon="-2.753448000">
  <ele>806.000000</ele>
  <time>2012-04-22T17:15:50Z</time>
</trkpt>
<trkpt lat="43.009560000" lon="-2.753433000">
  <ele>806.000000</ele>
  <time>2012-04-22T17:16:30Z</time>
</trkpt>
<trkpt lat="43.009483000" lon="-2.753074000">
  <ele>804.000000</ele>
  <time>2012-04-22T17:17:10Z</time>
</trkpt>
<trkpt lat="43.009369000" lon="-2.752738000">
  <ele>802.000000</ele>
  <time>2012-04-22T17:17:50Z</time>
</trkpt>
<trkpt lat="43.009323000" lon="-2.752374000">
  <ele>799.000000</ele>
  <time>2012-04-22T17:18:30Z</time>
</trkpt>
<trkpt lat="43.009247000" lon="-2.752022000">
  <ele>795.000000</ele>
  <time>2012-04-22T17:19:50Z</time>
</trkpt>
<trkpt lat="43.009098000" lon="-2.751696000">
  <ele>791.000000</ele>
  <time>2012-04-22T17:20:30Z</time>
</trkpt>
<trkpt lat="43.009010000" lon="-2.751545000">
  <ele>789.000000</ele>
  <time>2012-04-22T17:21:10Z</time>
</trkpt>
<trkpt lat="43.008797000" lon="-2.751120000">
  <ele>783.000000</ele>
  <time>2012-04-22T17:22:30Z</time>
</trkpt>
<trkpt lat="43.008713000" lon="-2.750765000">
  <ele>779.000000</ele>
  <time>2012-04-22T17:23:10Z</time>
</trkpt>
<trkpt lat="43.008556000" lon="-2.750462000">
  <ele>777.000000</ele>
  <time>2012-04-22T17:23:50Z</time>
</trkpt>
<trkpt lat="43.008389000" lon="-2.750169000">
  <ele>774.000000</ele>
  <time>2012-04-22T17:24:30Z</time>
</trkpt>
<trkpt lat="43.008381000" lon="-2.749989000">
  <ele>773.000000</ele>
  <time>2012-04-22T17:25:50Z</time>
</trkpt>
<trkpt lat="43.008217000" lon="-2.749682000">
  <ele>769.000000</ele>
  <time>2012-04-22T17:26:30Z</time>
</trkpt>
<trkpt lat="43.007648000" lon="-2.748829000">
  <ele>758.000000</ele>
  <time>2012-04-22T17:28:30Z</time>
</trkpt>
<trkpt lat="43.007629000" lon="-2.748813000">
  <ele>758.000000</ele>
  <time>2012-04-22T17:29:10Z</time>
</trkpt>
<trkpt lat="43.007603000" lon="-2.748769000">
  <ele>758.000000</ele>
  <time>2012-04-22T17:29:50Z</time>
</trkpt>
<trkpt lat="43.007385000" lon="-2.748505000">
  <ele>755.000000</ele>
  <time>2012-04-22T17:30:30Z</time>
</trkpt>
<trkpt lat="43.007160000" lon="-2.748298000">
  <ele>752.000000</ele>
  <time>2012-04-22T17:31:10Z</time>
</trkpt>
<trkpt lat="43.006912000" lon="-2.748117000">
  <ele>752.000000</ele>
  <time>2012-04-22T17:31:50Z</time>
</trkpt>
<trkpt lat="43.006736000" lon="-2.747833000">
  <ele>751.000000</ele>
  <time>2012-04-22T17:32:30Z</time>
</trkpt>
<trkpt lat="43.006592000" lon="-2.747520000">
  <ele>747.000000</ele>
  <time>2012-04-22T17:33:10Z</time>
</trkpt>
<trkpt lat="43.006535000" lon="-2.747315000">
  <ele>744.000000</ele>
  <time>2012-04-22T17:33:50Z</time>
</trkpt>
<trkpt lat="43.006550000" lon="-2.747293000">
  <ele>743.000000</ele>
  <time>2012-04-22T17:34:30Z</time>
</trkpt>
<trkpt lat="43.006351000" lon="-2.747031000">
  <ele>741.000000</ele>
  <time>2012-04-22T17:35:10Z</time>
</trkpt>
<trkpt lat="43.006149000" lon="-2.746785000">
  <ele>740.000000</ele>
  <time>2012-04-22T17:35:50Z</time>
</trkpt>
<trkpt lat="43.006003000" lon="-2.746640000">
  <ele>740.000000</ele>
  <time>2012-04-22T17:36:30Z</time>
</trkpt>
<trkpt lat="43.005744000" lon="-2.746333000">
  <ele>739.000000</ele>
  <time>2012-04-22T17:37:50Z</time>
</trkpt>
<trkpt lat="43.005524000" lon="-2.746150000">
  <ele>739.000000</ele>
  <time>2012-04-22T17:38:30Z</time>
</trkpt>
<trkpt lat="43.005475000" lon="-2.746025000">
  <ele>737.000000</ele>
  <time>2012-04-22T17:39:10Z</time>
</trkpt>
<trkpt lat="43.005440000" lon="-2.745993000">
  <ele>737.000000</ele>
  <time>2012-04-22T17:39:50Z</time>
</trkpt>
<trkpt lat="43.005413000" lon="-2.745940000">
  <ele>736.000000</ele>
  <time>2012-04-22T17:40:30Z</time>
</trkpt>
<trkpt lat="43.005338000" lon="-2.745907000">
  <ele>737.000000</ele>
  <time>2012-04-22T17:41:10Z</time>
</trkpt>
<trkpt lat="43.005344000" lon="-2.745915000">
  <ele>737.000000</ele>
  <time>2012-04-22T17:41:50Z</time>
</trkpt>
<trkpt lat="43.005250000" lon="-2.745819000">
  <ele>737.000000</ele>
  <time>2012-04-22T17:42:30Z</time>
</trkpt>
<trkpt lat="43.004787000" lon="-2.745491000">
  <ele>739.000000</ele>
  <time>2012-04-22T17:43:50Z</time>
</trkpt>
<trkpt lat="43.004280000" lon="-2.744872000">
  <ele>733.000000</ele>
  <time>2012-04-22T17:45:50Z</time>
</trkpt>
<trkpt lat="43.004250000" lon="-2.744798000">
  <ele>732.000000</ele>
  <time>2012-04-22T17:46:30Z</time>
</trkpt>
<trkpt lat="43.004070000" lon="-2.744493000">
  <ele>728.000000</ele>
  <time>2012-04-22T17:47:50Z</time>
</trkpt>
<trkpt lat="43.003929000" lon="-2.744390000">
  <ele>727.000000</ele>
  <time>2012-04-22T17:48:30Z</time>
</trkpt>
<trkpt lat="43.003696000" lon="-2.744187000">
  <ele>724.000000</ele>
  <time>2012-04-22T17:49:10Z</time>
</trkpt>
<trkpt lat="43.003490000" lon="-2.743927000">
  <ele>721.000000</ele>
  <time>2012-04-22T17:49:50Z</time>
</trkpt>
<trkpt lat="43.003345000" lon="-2.743631000">
  <ele>718.000000</ele>
  <time>2012-04-22T17:50:30Z</time>
</trkpt>
<trkpt lat="43.003251000" lon="-2.743258000">
  <ele>717.000000</ele>
  <time>2012-04-22T17:51:10Z</time>
</trkpt>
<trkpt lat="43.003101000" lon="-2.742987000">
  <ele>719.000000</ele>
  <time>2012-04-22T17:51:50Z</time>
</trkpt>
<trkpt lat="43.003010000" lon="-2.742843000">
  <ele>720.000000</ele>
  <time>2012-04-22T17:52:30Z</time>
</trkpt>
<trkpt lat="43.003025000" lon="-2.742799000">
  <ele>719.000000</ele>
  <time>2012-04-22T17:53:10Z</time>
</trkpt>
<trkpt lat="43.003021000" lon="-2.742603000">
  <ele>717.000000</ele>
  <time>2012-04-22T17:54:30Z</time>
</trkpt>
<trkpt lat="43.003010000" lon="-2.742437000">
  <ele>716.000000</ele>
  <time>2012-04-22T17:55:10Z</time>
</trkpt>
<trkpt lat="43.002963000" lon="-2.742322000">
  <ele>716.000000</ele>
  <time>2012-04-22T17:55:50Z</time>
</trkpt>
<trkpt lat="43.002972000" lon="-2.742224000">
  <ele>715.000000</ele>
  <time>2012-04-22T17:57:10Z</time>
</trkpt>
<trkpt lat="43.002979000" lon="-2.742221000">
  <ele>715.000000</ele>
  <time>2012-04-22T17:57:50Z</time>
</trkpt>
<trkpt lat="43.003001000" lon="-2.742073000">
  <ele>713.000000</ele>
  <time>2012-04-22T17:59:50Z</time>
</trkpt>
</trkseg>
</trk>
</gpx>
